Time;durP1;ratioP1;P1;durP2;ratioP2;P2;SDS_P1;SDS_P2;PMS_P1;PMS_P2;Temp;Humidity;BMP_temperature;BMP_pressure;BME280_temperature;BME280_humidity;BME280_pressure;Samples;Min_cycle;Max_cycle;Signal;HPM_P1;HPM_P2
2022/10/05 00:00:35;;;;;;;5.53;3.20;;;;;;;;;;6147306;29;20015;-76
2022/10/05 00:03:40;;;;;;;2.65;2.55;;;;;;;;;;6148870;29;20022;-76
2022/10/05 00:06:41;;;;;;;5.90;5.35;;;;;;;;;;6148953;29;20019;-76
2022/10/05 00:09:42;;;;;;;4.77;4.30;;;;;;;;;;6147627;28;20055;-76
2022/10/05 00:12:43;;;;;;;1.17;1.08;;;;;;;;;;6143437;29;20039;-76
2022/10/05 00:15:44;;;;;;;5.53;2.78;;;;;;;;;;6149082;28;20019;-76
2022/10/05 00:18:45;;;;;;;1.17;1.17;;;;;;;;;;6130709;28;20055;-76
2022/10/05 00:21:46;;;;;;;2.28;2.17;;;;;;;;;;6148404;29;20094;-76
2022/10/05 00:24:47;;;;;;;5.43;3.83;;;;;;;;;;6148198;28;20045;-76
2022/10/05 00:27:52;;;;;;;4.00;3.13;;;;;;;;;;6148269;28;20486;-76
2022/10/05 00:30:59;;;;;;;3.83;3.22;;;;;;;;;;6130677;29;20034;-76
2022/10/05 00:33:59;;;;;;;0.75;0.75;;;;;;;;;;6126144;29;20015;-76
2022/10/05 00:36:59;;;;;;;1.13;1.13;;;;;;;;;;6147171;29;20034;-76
2022/10/05 00:39:59;;;;;;;2.10;2.00;;;;;;;;;;6146491;28;20089;-76
2022/10/05 00:42:59;;;;;;;14.97;4.60;;;;;;;;;;6140521;28;20036;-76
2022/10/05 00:46:06;;;;;;;2.45;2.35;;;;;;;;;;6122932;28;20073;-75
2022/10/05 00:49:20;;;;;;;4.78;3.90;;;;;;;;;;6127878;29;20015;-75
2022/10/05 00:52:23;;;;;;;4.40;4.13;;;;;;;;;;6148044;29;20394;-75
2022/10/05 00:55:26;;;;;;;1.80;1.70;;;;;;;;;;6147368;28;20019;-75
2022/10/05 00:58:45;;;;;;;5.82;5.30;;;;;;;;;;6125173;29;20139;-75
2022/10/05 01:01:45;;;;;;;1.35;1.25;;;;;;;;;;6149417;28;20023;-75
2022/10/05 01:05:01;;;;;;;2.85;2.65;;;;;;;;;;6128347;28;20031;-75
2022/10/05 01:08:15;;;;;;;2.15;2.05;;;;;;;;;;6128839;28;20045;-75
2022/10/05 01:11:18;;;;;;;2.70;2.50;;;;;;;;;;6144719;28;20098;-75
2022/10/05 01:14:32;;;;;;;1.95;1.85;;;;;;;;;;6144058;28;20364;-75
2022/10/05 01:17:52;;;;;;;4.70;4.28;;;;;;;;;;6127067;29;20012;-76
2022/10/05 01:21:00;;;;;;;3.70;2.63;;;;;;;;;;6143290;28;20482;-76
2022/10/05 01:24:10;;;;;;;2.28;2.15;;;;;;;;;;6130547;29;20105;-76
2022/10/05 01:27:29;;;;;;;1.42;1.35;;;;;;;;;;6146389;28;20033;-76
2022/10/05 01:30:33;;;;;;;4.90;4.45;;;;;;;;;;6132521;28;20051;-76
2022/10/05 01:33:33;;;;;;;6.10;4.88;;;;;;;;;;6148817;28;20011;-76
2022/10/05 01:36:38;;;;;;;2.22;2.13;;;;;;;;;;6130016;29;20057;-76
2022/10/05 01:39:38;;;;;;;1.65;1.58;;;;;;;;;;6147085;28;20023;-76
2022/10/05 01:42:45;;;;;;;4.85;4.50;;;;;;;;;;6143309;28;20026;-76
2022/10/05 01:46:24;;;;;;;2.72;2.60;;;;;;;;;;6146767;28;20015;-76
2022/10/05 01:49:43;;;;;;;6.22;4.90;;;;;;;;;;6057691;29;20020;-76
2022/10/05 01:52:51;;;;;;;2.80;2.60;;;;;;;;;;6060388;29;20340;-76
2022/10/05 01:55:54;;;;;;;6.18;3.70;;;;;;;;;;6146684;28;20049;-77
2022/10/05 01:59:05;;;;;;;6.25;2.47;;;;;;;;;;6145957;28;20019;-77
2022/10/05 02:02:07;;;;;;;4.22;3.92;;;;;;;;;;6141221;28;20098;-75
2022/10/05 02:05:07;;;;;;;;;;;;;;;;;;6146925;28;20019;-76
2022/10/05 02:08:12;;;;;;;3.38;3.08;;;;;;;;;;6145616;28;19969;-76
2022/10/05 02:11:13;;;;;;;4.85;4.43;;;;;;;;;;6146279;28;20653;-76
2022/10/05 02:14:19;;;;;;;0.68;0.68;;;;;;;;;;6126727;28;20032;-76
2022/10/05 02:17:22;;;;;;;4.53;4.10;;;;;;;;;;6148118;28;20027;-76
2022/10/05 02:20:24;;;;;;;2.30;2.20;;;;;;;;;;6148091;28;20372;-75
2022/10/05 02:23:29;;;;;;;3.20;2.97;;;;;;;;;;6143301;28;20118;-75
2022/10/05 02:26:30;;;;;;;2.75;2.65;;;;;;;;;;6147915;28;20011;-76
2022/10/05 02:29:32;;;;;;;0.83;0.83;;;;;;;;;;6128218;29;20063;-76
2022/10/05 02:32:36;;;;;;;0.77;0.77;;;;;;;;;;6150105;28;20293;-76
2022/10/05 02:35:36;;;;;;;4.97;4.60;;;;;;;;;;6150477;29;20463;-76
2022/10/05 02:38:52;;;;;;;2.78;2.33;;;;;;;;;;6154732;28;20039;-76
2022/10/05 02:41:56;;;;;;;1.20;1.15;;;;;;;;;;6133002;28;20479;-76
2022/10/05 02:45:22;;;;;;;0.88;0.88;;;;;;;;;;6150556;28;20022;-76
2022/10/05 02:48:41;;;;;;;2.25;2.15;;;;;;;;;;6122599;28;20616;-76
2022/10/05 02:51:41;;;;;;;2.65;2.55;;;;;;;;;;6147782;28;20481;-76
2022/10/05 02:54:41;;;;;;;2.58;2.47;;;;;;;;;;6151666;28;20391;-76
2022/10/05 02:58:01;;;;;;;2.08;1.73;;;;;;;;;;6133412;29;20027;-76
2022/10/05 03:01:14;;;;;;;2.10;2.00;;;;;;;;;;6149749;28;20042;-76
2022/10/05 03:04:23;;;;;;;2.75;2.60;;;;;;;;;;6149661;28;20027;-76
2022/10/05 03:07:30;;;;;;;3.42;3.15;;;;;;;;;;6149431;28;20035;-76
2022/10/05 03:10:49;;;;;;;1.48;1.48;;;;;;;;;;6139054;28;20027;-76
2022/10/05 03:14:08;;;;;;;4.47;1.85;;;;;;;;;;6144512;28;20081;-80
2022/10/05 03:17:17;;;;;;;0.68;0.68;;;;;;;;;;6147360;28;20148;-81
2022/10/05 03:20:18;;;;;;;1.95;1.67;;;;;;;;;;6153256;28;20510;-80
2022/10/05 03:23:33;;;;;;;2.17;1.20;;;;;;;;;;6152012;28;20027;-80
2022/10/05 03:26:53;;;;;;;4.60;2.80;;;;;;;;;;6151501;28;20043;-80
2022/10/05 03:29:57;;;;;;;5.10;4.15;;;;;;;;;;6149258;28;20456;-80
2022/10/05 03:33:01;;;;;;;14.20;4.88;;;;;;;;;;6132212;28;20028;-81
2022/10/05 03:36:08;;;;;;;3.85;3.58;;;;;;;;;;6138764;28;20034;-81
2022/10/05 03:39:31;;;;;;;0.40;0.40;;;;;;;;;;6154315;28;20023;-81
2022/10/05 03:42:50;;;;;;;5.43;3.58;;;;;;;;;;6148145;28;20062;-81
2022/10/05 03:46:06;;;;;;;1.23;1.23;;;;;;;;;;6132351;28;20121;-81
2022/10/05 03:49:15;;;;;;;0.93;0.93;;;;;;;;;;6150192;28;20023;-81
2022/10/05 03:52:28;;;;;;;3.30;3.10;;;;;;;;;;6151227;28;20031;-81
2022/10/05 03:55:32;;;;;;;2.22;2.15;;;;;;;;;;6150250;29;20031;-81
2022/10/05 03:58:33;;;;;;;4.22;3.03;;;;;;;;;;6149108;28;20027;-81
2022/10/05 04:01:50;;;;;;;9.83;4.07;;;;;;;;;;6131426;29;20066;-81
2022/10/05 04:04:53;;;;;;;2.28;2.17;;;;;;;;;;6148891;28;20019;-79
2022/10/05 04:08:03;;;;;;;3.88;3.58;;;;;;;;;;6148674;28;20071;-79
2022/10/05 04:11:04;;;;;;;0.47;0.47;;;;;;;;;;6148168;28;20030;-80
2022/10/05 04:14:11;;;;;;;2.78;2.58;;;;;;;;;;6149177;29;20125;-80
2022/10/05 04:17:14;;;;;;;4.13;2.85;;;;;;;;;;6147222;28;20051;-80
2022/10/05 04:20:29;;;;;;;2.75;2.55;;;;;;;;;;6129433;29;20526;-80
2022/10/05 04:23:39;;;;;;;1.58;1.50;;;;;;;;;;6130350;29;20114;-80
2022/10/05 04:26:44;;;;;;;4.22;3.17;;;;;;;;;;6137216;29;20035;-80
2022/10/05 04:29:44;;;;;;;1.67;1.60;;;;;;;;;;6147593;28;20078;-80
2022/10/05 04:32:49;;;;;;;1.83;1.73;;;;;;;;;;6143386;29;20031;-80
2022/10/05 04:35:49;;;;;;;0.95;0.95;;;;;;;;;;6126749;29;20027;-80
2022/10/05 04:38:55;;;;;;;3.33;3.03;;;;;;;;;;6132107;29;20058;-80
2022/10/05 04:42:04;;;;;;;1.98;1.88;;;;;;;;;;6148728;29;20028;-80
2022/10/05 04:45:13;;;;;;;2.95;2.78;;;;;;;;;;6148803;29;20069;-80
2022/10/05 04:48:26;;;;;;;1.20;1.10;;;;;;;;;;6148082;28;20144;-80
2022/10/05 04:51:41;;;;;;;5.38;4.82;;;;;;;;;;6147589;29;20030;-80
2022/10/05 04:55:00;;;;;;;1.50;1.45;;;;;;;;;;6145897;28;20037;-80
2022/10/05 04:58:05;;;;;;;4.28;3.95;;;;;;;;;;6145913;28;20023;-80
2022/10/05 05:01:11;;;;;;;3.20;2.67;;;;;;;;;;6142697;28;20027;-80
2022/10/05 05:04:31;;;;;;;5.35;4.68;;;;;;;;;;6145567;28;20083;-80
2022/10/05 05:07:31;;;;;;;6.50;5.95;;;;;;;;;;6141470;28;20051;-80
2022/10/05 05:10:31;;;;;;;4.03;3.73;;;;;;;;;;6141746;28;20023;-80
2022/10/05 05:13:50;;;;;;;2.00;1.65;;;;;;;;;;6146194;28;20027;-80
2022/10/05 05:17:03;;;;;;;2.53;2.42;;;;;;;;;;6142098;28;20608;-80
2022/10/05 05:20:14;;;;;;;3.08;2.85;;;;;;;;;;6147044;28;20395;-80
2022/10/05 05:23:29;;;;;;;2.20;1.92;;;;;;;;;;6130418;29;20050;-80
2022/10/05 05:27:05;;;;;;;2.50;2.35;;;;;;;;;;6147393;29;20019;-80
2022/10/05 05:30:05;;;;;;;3.92;3.63;;;;;;;;;;6055943;29;20036;-80
2022/10/05 05:33:26;;;;;;;2.00;1.92;;;;;;;;;;6128852;29;20039;-80
2022/10/05 05:36:33;;;;;;;3.80;3.60;;;;;;;;;;6142218;29;20642;-81
2022/10/05 05:39:49;;;;;;;3.47;3.17;;;;;;;;;;6125773;29;20026;-81
2022/10/05 05:42:55;;;;;;;2.47;2.38;;;;;;;;;;6142894;29;20106;-80
2022/10/05 05:45:55;;;;;;;2.47;2.38;;;;;;;;;;6144422;29;20435;-81
2022/10/05 05:48:56;;;;;;;4.78;4.43;;;;;;;;;;6146866;29;20363;-80
2022/10/05 05:52:05;;;;;;;1.83;1.73;;;;;;;;;;6147294;29;20042;-80
2022/10/05 05:55:05;;;;;;;4.55;2.78;;;;;;;;;;6141246;28;20075;-80
2022/10/05 05:58:08;;;;;;;2.58;2.40;;;;;;;;;;6147354;29;20023;-80
2022/10/05 06:01:18;;;;;;;3.33;3.05;;;;;;;;;;6140077;28;20027;-81
2022/10/05 06:04:23;;;;;;;3.80;3.50;;;;;;;;;;6144668;28;20379;-80
2022/10/05 06:07:26;;;;;;;6.18;2.15;;;;;;;;;;6139459;28;20085;-80
2022/10/05 06:10:40;;;;;;;6.97;5.30;;;;;;;;;;6140333;28;20042;-79
2022/10/05 06:13:41;;;;;;;2.25;2.03;;;;;;;;;;6141222;28;20019;-80
2022/10/05 06:16:47;;;;;;;2.30;2.13;;;;;;;;;;6142237;28;20170;-79
2022/10/05 06:19:49;;;;;;;1.85;1.75;;;;;;;;;;6141466;28;20415;-80
2022/10/05 06:22:50;;;;;;;5.40;4.25;;;;;;;;;;6124440;28;20387;-80
2022/10/05 06:26:01;;;;;;;3.78;3.53;;;;;;;;;;6141303;28;20032;-80
2022/10/05 06:29:03;;;;;;;6.93;4.55;;;;;;;;;;6141742;28;20034;-81
2022/10/05 06:32:05;;;;;;;5.00;4.57;;;;;;;;;;6126318;28;20047;-81
2022/10/05 06:35:05;;;;;;;;;;;;;;;;;;6133364;28;20032;-81
2022/10/05 06:38:15;;;;;;;3.17;2.70;;;;;;;;;;6139571;28;19985;-80
2022/10/05 06:41:28;;;;;;;4.63;4.10;;;;;;;;;;6144991;28;20164;-79
2022/10/05 06:44:35;;;;;;;3.50;3.20;;;;;;;;;;6141930;28;20106;-80
2022/10/05 06:47:38;;;;;;;3.22;2.92;;;;;;;;;;6120993;28;20497;-79
2022/10/05 06:50:43;;;;;;;2.08;1.83;;;;;;;;;;6144114;28;20086;-79
2022/10/05 06:54:07;;;;;;;2.58;2.38;;;;;;;;;;6127254;28;20027;-80
2022/10/05 06:57:28;;;;;;;3.08;2.38;;;;;;;;;;6130416;29;20038;-80
2022/10/05 07:00:39;;;;;;;1.55;1.45;;;;;;;;;;6128597;29;20054;-79
2022/10/05 07:03:48;;;;;;;1.47;1.47;;;;;;;;;;6137773;28;20069;-79
2022/10/05 07:06:53;;;;;;;2.25;2.15;;;;;;;;;;6140837;28;20451;-79
2022/10/05 07:10:06;;;;;;;2.38;2.00;;;;;;;;;;6119949;29;20469;-79
2022/10/05 07:13:21;;;;;;;2.80;2.53;;;;;;;;;;6144159;29;20036;-79
2022/10/05 07:16:45;;;;;;;7.85;6.85;;;;;;;;;;6115469;28;20042;-79
2022/10/05 07:19:51;;;;;;;9.73;7.10;;;;;;;;;;6140981;28;20047;-79
2022/10/05 07:22:57;;;;;;;6.68;4.20;;;;;;;;;;6149985;29;20715;-79
2022/10/05 07:26:24;;;;;;;7.45;5.60;;;;;;;;;;6150083;29;20086;-79
2022/10/05 07:29:30;;;;;;;3.10;2.67;;;;;;;;;;6128494;29;20094;-79
2022/10/05 07:32:33;;;;;;;4.22;2.58;;;;;;;;;;6149806;29;20029;-79
2022/10/05 07:39:04;;;;;;;1.85;1.75;;;;;;;;;;6148437;29;20020;-79
2022/10/05 07:42:17;;;;;;;2.25;1.60;;;;;;;;;;6149328;29;20019;-79
2022/10/05 07:45:21;;;;;;;1.05;1.05;;;;;;;;;;6135313;29;20082;-79
2022/10/05 07:48:22;;;;;;;2.35;2.22;;;;;;;;;;6149242;28;20016;-79
2022/10/05 07:51:25;;;;;;;7.20;4.25;;;;;;;;;;6131373;29;20019;-79
2022/10/05 07:54:25;;;;;;;1.10;1.10;;;;;;;;;;6128699;28;20176;-78
2022/10/05 07:57:49;;;;;;;1.83;1.42;;;;;;;;;;6142393;28;20407;-78
2022/10/05 08:01:08;;;;;;;4.53;3.72;;;;;;;;;;6148804;28;20171;-78
2022/10/05 08:04:14;;;;;;;1.00;0.95;;;;;;;;;;6149328;28;20047;-78
2022/10/05 08:07:15;;;;;;;2.30;1.60;;;;;;;;;;6147934;28;20047;-78
2022/10/05 08:10:15;;;;;;;;;;;;;;;;;;6133451;28;20574;-78
2022/10/05 08:13:22;;;;;;;3.47;1.90;;;;;;;;;;6147857;28;20390;-78
2022/10/05 08:16:25;;;;;;;2.92;2.22;;;;;;;;;;6147239;28;20081;-78
2022/10/05 08:19:32;;;;;;;1.52;1.42;;;;;;;;;;6148192;29;20430;-78
2022/10/05 08:22:39;;;;;;;2.15;2.05;;;;;;;;;;6149198;29;20027;-78
2022/10/05 08:25:44;;;;;;;1.63;1.52;;;;;;;;;;6144256;29;20017;-79
2022/10/05 08:28:51;;;;;;;0.82;0.82;;;;;;;;;;6148489;28;20154;-79
2022/10/05 08:31:54;;;;;;;1.25;1.13;;;;;;;;;;6130820;29;20418;-79
2022/10/05 08:35:16;;;;;;;0.85;0.85;;;;;;;;;;6148657;29;20045;-79
2022/10/05 08:38:18;;;;;;;0.65;0.65;;;;;;;;;;6144210;28;20023;-79
2022/10/05 08:41:21;;;;;;;2.47;2.28;;;;;;;;;;6145885;28;20019;-79
2022/10/05 08:44:40;;;;;;;1.20;1.10;;;;;;;;;;6148305;28;20058;-79
2022/10/05 08:47:40;;;;;;;0.55;0.55;;;;;;;;;;6148852;28;20920;-79
2022/10/05 08:50:47;;;;;;;1.33;1.23;;;;;;;;;;6147585;28;20019;-79
2022/10/05 08:53:56;;;;;;;0.73;0.50;;;;;;;;;;6149014;29;20124;-79
2022/10/05 08:57:20;;;;;;;1.85;1.58;;;;;;;;;;6147559;29;20475;-78
2022/10/05 09:00:24;;;;;;;0.30;0.30;;;;;;;;;;6104115;29;20039;-78
2022/10/05 09:03:36;;;;;;;2.65;2.50;;;;;;;;;;6147889;29;20400;-78
2022/10/05 09:06:42;;;;;;;4.20;2.13;;;;;;;;;;6147929;29;20023;-78
2022/10/05 09:10:01;;;;;;;1.23;1.15;;;;;;;;;;6146890;28;20125;-78
2022/10/05 09:13:01;;;;;;;1.80;1.67;;;;;;;;;;6144461;29;20051;-78
2022/10/05 09:16:07;;;;;;;1.73;1.03;;;;;;;;;;6130693;28;20029;-78
2022/10/05 09:19:33;;;;;;;1.42;0.73;;;;;;;;;;6147346;29;20059;-78
2022/10/05 09:22:39;;;;;;;0.77;0.77;;;;;;;;;;6144803;29;20376;-78
2022/10/05 09:25:40;;;;;;;1.10;1.10;;;;;;;;;;6141245;29;20472;-78
2022/10/05 09:28:40;;;;;;;6.53;0.70;;;;;;;;;;6147725;29;20019;-78
2022/10/05 09:31:46;;;;;;;1.23;0.90;;;;;;;;;;6146058;29;20027;-78
2022/10/05 09:34:46;;;;;;;1.75;1.65;;;;;;;;;;6147466;29;20031;-78
2022/10/05 09:38:07;;;;;;;1.17;1.17;;;;;;;;;;6147439;29;20026;-78
2022/10/05 09:41:07;;;;;;;0.40;0.40;;;;;;;;;;6146041;28;20016;-78
2022/10/05 09:44:40;;;;;;;1.27;1.27;;;;;;;;;;6144681;28;20070;-78
2022/10/05 09:47:49;;;;;;;0.95;0.43;;;;;;;;;;6105827;28;20492;-78
2022/10/05 09:51:08;;;;;;;1.75;1.00;;;;;;;;;;6140467;28;20026;-78
2022/10/05 09:54:17;;;;;;;1.73;1.17;;;;;;;;;;6146243;28;20102;-78
2022/10/05 09:57:30;;;;;;;0.45;0.45;;;;;;;;;;6146068;29;20050;-78
2022/10/05 10:00:37;;;;;;;0.52;0.52;;;;;;;;;;6146407;29;20082;-79
2022/10/05 10:03:57;;;;;;;0.55;0.55;;;;;;;;;;6143859;29;20078;-78
2022/10/05 10:07:16;;;;;;;1.30;1.23;;;;;;;;;;6140936;28;20031;-78
2022/10/05 10:10:29;;;;;;;0.52;0.52;;;;;;;;;;6141527;28;20065;-78
2022/10/05 10:13:29;;;;;;;0.98;0.73;;;;;;;;;;6143064;28;20027;-78
2022/10/05 10:16:33;;;;;;;2.20;2.10;;;;;;;;;;6140180;28;20066;-78
2022/10/05 10:19:57;;;;;;;2.58;1.48;;;;;;;;;;6143799;28;20038;-78
2022/10/05 10:23:06;;;;;;;0.20;0.20;;;;;;;;;;6141428;28;20015;-77
2022/10/05 10:26:10;;;;;;;1.20;1.10;;;;;;;;;;6139618;28;20038;-77
2022/10/05 10:29:16;;;;;;;0.70;0.70;;;;;;;;;;6140922;28;20031;-77
2022/10/05 10:32:31;;;;;;;1.85;0.60;;;;;;;;;;6145341;29;20034;-77
2022/10/05 10:35:49;;;;;;;0.65;0.65;;;;;;;;;;6138243;28;20027;-77
2022/10/05 10:39:06;;;;;;;1.85;1.38;;;;;;;;;;6133269;28;20029;-77
2022/10/05 10:42:42;;;;;;;0.60;0.60;;;;;;;;;;6144090;28;20479;-78
2022/10/05 10:45:52;;;;;;;0.32;0.32;;;;;;;;;;6073996;29;20024;-77
2022/10/05 10:49:00;;;;;;;0.57;0.57;;;;;;;;;;6145607;28;20023;-77
2022/10/05 10:52:03;;;;;;;0.55;0.55;;;;;;;;;;6147272;28;20403;-77
2022/10/05 10:55:06;;;;;;;1.90;1.70;;;;;;;;;;6146780;28;20035;-77
2022/10/05 10:58:15;;;;;;;4.65;1.40;;;;;;;;;;6149305;28;20494;-77
2022/10/05 11:01:15;;;;;;;0.40;0.40;;;;;;;;;;6148987;29;20399;-77
2022/10/05 11:04:22;;;;;;;0.43;0.43;;;;;;;;;;6144643;29;20491;-77
2022/10/05 11:07:22;;;;;;;0.20;0.20;;;;;;;;;;6143287;28;20035;-77
2022/10/05 11:10:35;;;;;;;0.47;0.47;;;;;;;;;;6148960;28;20031;-77
2022/10/05 11:13:48;;;;;;;0.60;0.60;;;;;;;;;;6148991;29;20027;-77
2022/10/05 11:16:57;;;;;;;1.85;1.23;;;;;;;;;;6149932;28;20015;-77
2022/10/05 11:20:05;;;;;;;0.57;0.57;;;;;;;;;;6146200;29;20074;-77
2022/10/05 11:23:15;;;;;;;0.28;0.28;;;;;;;;;;6149900;29;20023;-77
2022/10/05 11:26:34;;;;;;;0.80;0.80;;;;;;;;;;6146780;29;20067;-77
2022/10/05 11:29:40;;;;;;;0.40;0.40;;;;;;;;;;6146386;29;20023;-77
2022/10/05 11:32:41;;;;;;;0.50;0.50;;;;;;;;;;6146747;29;20038;-77
2022/10/05 11:35:50;;;;;;;7.40;0.83;;;;;;;;;;6143910;29;20034;-77
2022/10/05 11:39:09;;;;;;;0.52;0.45;;;;;;;;;;6148655;29;20034;-77
2022/10/05 11:42:28;;;;;;;0.63;0.63;;;;;;;;;;6147443;29;20011;-78
2022/10/05 11:45:45;;;;;;;0.63;0.63;;;;;;;;;;6148855;28;20022;-78
2022/10/05 11:48:54;;;;;;;0.52;0.52;;;;;;;;;;6148682;29;20082;-78
2022/10/05 11:52:05;;;;;;;0.73;0.73;;;;;;;;;;6145995;28;20079;-77
2022/10/05 11:55:14;;;;;;;0.30;0.30;;;;;;;;;;6146324;28;20038;-77
2022/10/05 11:58:21;;;;;;;4.75;2.40;;;;;;;;;;6130987;29;20031;-77
2022/10/05 12:01:30;;;;;;;0.20;0.20;;;;;;;;;;6146153;28;20077;-77
2022/10/05 12:04:54;;;;;;;1.60;1.50;;;;;;;;;;6148840;28;20019;-77
2022/10/05 12:07:54;;;;;;;0.32;0.32;;;;;;;;;;6147253;28;20046;-77
2022/10/05 12:11:07;;;;;;;0.10;0.10;;;;;;;;;;6147438;28;20046;-77
2022/10/05 12:14:17;;;;;;;0.98;0.90;;;;;;;;;;6148728;29;20157;-77
2022/10/05 12:17:21;;;;;;;1.60;0.90;;;;;;;;;;6143913;28;20025;-77
2022/10/05 12:20:24;;;;;;;1.08;0.82;;;;;;;;;;6146599;28;20526;-77
2022/10/05 12:23:33;;;;;;;0.35;0.20;;;;;;;;;;6145507;28;20097;-77
2022/10/05 12:26:43;;;;;;;0.10;0.10;;;;;;;;;;6147311;28;20047;-77
2022/10/05 12:30:04;;;;;;;1.10;1.02;;;;;;;;;;6127745;28;20143;-76
2022/10/05 12:33:07;;;;;;;1.00;1.00;;;;;;;;;;6146741;29;20400;-77
2022/10/05 12:36:18;;;;;;;0.88;0.88;;;;;;;;;;6144434;28;20023;-77
2022/10/05 12:39:36;;;;;;;0.40;0.40;;;;;;;;;;6134087;28;20465;-77
2022/10/05 12:42:41;;;;;;;0.30;0.30;;;;;;;;;;6146807;28;20023;-76
2022/10/05 12:45:56;;;;;;;0.20;0.20;;;;;;;;;;6147070;28;20106;-76
2022/10/05 12:48:59;;;;;;;0.47;0.47;;;;;;;;;;6145973;29;20118;-77
2022/10/05 12:52:00;;;;;;;19.02;0.98;;;;;;;;;;6144384;29;20035;-77
2022/10/05 12:55:00;;;;;;;;;;;;;;;;;;6142367;29;20107;-77
2022/10/05 12:58:08;;;;;;;0.52;0.52;;;;;;;;;;6137188;29;19915;-77
2022/10/05 13:01:19;;;;;;;0.75;0.75;;;;;;;;;;6144645;29;20031;-78
2022/10/05 13:04:19;;;;;;;;;;;;;;;;;;6147587;29;20019;-78
2022/10/05 13:07:38;;;;;;;1.48;1.27;;;;;;;;;;6146459;28;19922;-76
2022/10/05 13:10:44;;;;;;;3.10;1.15;;;;;;;;;;6146994;28;20443;-77
2022/10/05 13:14:04;;;;;;;0.50;0.50;;;;;;;;;;6144161;29;20034;-77
2022/10/05 13:17:10;;;;;;;2.97;1.08;;;;;;;;;;6145841;28;20027;-76
2022/10/05 13:20:19;;;;;;;2.72;0.68;;;;;;;;;;6147350;29;20479;-76
2022/10/05 13:23:23;;;;;;;0.63;0.63;;;;;;;;;;6141392;29;20098;-76
2022/10/05 13:26:26;;;;;;;0.70;0.70;;;;;;;;;;6146546;29;20026;-77
2022/10/05 13:29:43;;;;;;;0.65;0.65;;;;;;;;;;6145832;29;20027;-77
2022/10/05 13:32:55;;;;;;;0.63;0.63;;;;;;;;;;6146433;29;20037;-77
2022/10/05 13:35:56;;;;;;;0.38;0.32;;;;;;;;;;6144585;29;20038;-78
2022/10/05 13:39:08;;;;;;;0.85;0.85;;;;;;;;;;6141396;28;20423;-77
2022/10/05 13:42:11;;;;;;;0.65;0.65;;;;;;;;;;6141323;28;20034;-77
2022/10/05 13:45:15;;;;;;;0.98;0.68;;;;;;;;;;6144722;28;20034;-76
2022/10/05 13:48:34;;;;;;;1.70;1.60;;;;;;;;;;6144481;28;20035;-76
2022/10/05 13:51:38;;;;;;;0.30;0.30;;;;;;;;;;6143316;28;20034;-76
2022/10/05 13:54:44;;;;;;;0.60;0.60;;;;;;;;;;6143822;28;20027;-77
2022/10/05 13:57:54;;;;;;;1.35;0.68;;;;;;;;;;6142354;28;20038;-78
2022/10/05 14:00:58;;;;;;;0.35;0.35;;;;;;;;;;6138986;28;20033;-76
2022/10/05 14:04:08;;;;;;;0.57;0.57;;;;;;;;;;6145215;28;20482;-76
2022/10/05 14:07:20;;;;;;;0.50;0.50;;;;;;;;;;6141682;28;20039;-77
2022/10/05 14:10:30;;;;;;;0.47;0.47;;;;;;;;;;6142930;28;20054;-76
2022/10/05 14:13:45;;;;;;;3.88;1.17;;;;;;;;;;6142397;28;20035;-77
2022/10/05 14:16:50;;;;;;;0.95;0.95;;;;;;;;;;6127606;28;20034;-77
2022/10/05 14:19:53;;;;;;;1.73;1.27;;;;;;;;;;6125993;29;20237;-77
2022/10/05 14:22:56;;;;;;;0.70;0.70;;;;;;;;;;6142467;28;20388;-76
2022/10/05 14:25:56;;;;;;;2.50;1.48;;;;;;;;;;6145167;29;20087;-77
2022/10/05 14:28:58;;;;;;;3.20;1.33;;;;;;;;;;6148624;28;20027;-75
2022/10/05 14:31:59;;;;;;;0.10;0.10;;;;;;;;;;6149154;29;20023;-75
2022/10/05 14:35:09;;;;;;;0.30;0.30;;;;;;;;;;6148745;29;20395;-75
2022/10/05 14:38:20;;;;;;;0.20;0.20;;;;;;;;;;6150883;29;20090;-77
2022/10/05 14:41:20;;;;;;;0.22;0.22;;;;;;;;;;6146456;29;20338;-77
2022/10/05 14:44:31;;;;;;;0.40;0.40;;;;;;;;;;6150340;29;20102;-76
2022/10/05 14:47:33;;;;;;;1.80;1.20;;;;;;;;;;6150134;28;20102;-75
2022/10/05 14:50:47;;;;;;;0.30;0.30;;;;;;;;;;6151131;29;20082;-76
2022/10/05 14:53:55;;;;;;;1.35;1.25;;;;;;;;;;6148101;29;20467;-76
2022/10/05 14:57:14;;;;;;;0.13;0.13;;;;;;;;;;6149570;28;20449;-75
2022/10/05 15:00:17;;;;;;;0.60;0.60;;;;;;;;;;6146121;28;20364;-75
2022/10/05 15:03:50;;;;;;;0.10;0.10;;;;;;;;;;6149181;28;20015;-75
2022/10/05 15:07:04;;;;;;;0.60;0.60;;;;;;;;;;6117150;28;20027;-75
2022/10/05 15:10:25;;;;;;;0.30;0.30;;;;;;;;;;6147854;28;20031;-73
2022/10/05 15:13:35;;;;;;;0.63;0.63;;;;;;;;;;6147814;28;20034;-73
2022/10/05 15:16:37;;;;;;;0.40;0.40;;;;;;;;;;6144323;28;20027;-73
2022/10/05 15:20:01;;;;;;;1.20;0.95;;;;;;;;;;6141768;29;20030;-73
2022/10/05 15:23:10;;;;;;;0.63;0.63;;;;;;;;;;6138154;29;20043;-73
2022/10/05 15:26:10;;;;;;;0.90;0.88;;;;;;;;;;6147450;28;20126;-74
2022/10/05 15:29:17;;;;;;;0.52;0.52;;;;;;;;;;6132885;29;20438;-74
2022/10/05 15:32:28;;;;;;;0.90;0.73;;;;;;;;;;6148923;29;20027;-74
2022/10/05 15:35:28;;;;;;;1.15;1.08;;;;;;;;;;6144693;29;20431;-73
2022/10/05 15:38:39;;;;;;;0.87;0.63;;;;;;;;;;6142195;28;20062;-73
2022/10/05 15:41:54;;;;;;;1.08;1.00;;;;;;;;;;6146587;29;20023;-74
2022/10/05 15:44:57;;;;;;;0.75;0.75;;;;;;;;;;6148674;29;20396;-73
2022/10/05 15:47:59;;;;;;;0.73;0.73;;;;;;;;;;6129578;29;20019;-74
2022/10/05 15:51:16;;;;;;;0.90;0.80;;;;;;;;;;6148407;29;20617;-73
2022/10/05 15:54:48;;;;;;;0.52;0.40;;;;;;;;;;6148985;29;20034;-73
2022/10/05 15:57:55;;;;;;;0.82;0.82;;;;;;;;;;6126986;29;20034;-73
2022/10/05 16:00:57;;;;;;;16.02;3.03;;;;;;;;;;6148117;28;20518;-73
2022/10/05 16:04:09;;;;;;;1.40;1.30;;;;;;;;;;6131389;29;20050;-74
2022/10/05 16:10:40;;;;;;;0.30;0.30;;;;;;;;;;6145999;28;20035;-74
2022/10/05 16:13:44;;;;;;;0.10;0.10;;;;;;;;;;6147552;29;20446;-73
2022/10/05 16:16:50;;;;;;;0.57;0.57;;;;;;;;;;6144021;28;20035;-74
2022/10/05 16:20:02;;;;;;;0.47;0.47;;;;;;;;;;6147038;29;20031;-73
2022/10/05 16:23:05;;;;;;;0.63;0.63;;;;;;;;;;6148565;29;20062;-74
2022/10/05 16:26:37;;;;;;;0.52;0.52;;;;;;;;;;6148090;29;20027;-73
2022/10/05 16:29:56;;;;;;;0.93;0.93;;;;;;;;;;6092140;29;20046;-72
2022/10/05 16:33:00;;;;;;;0.20;0.20;;;;;;;;;;6132698;29;20074;-73
2022/10/05 16:36:09;;;;;;;1.45;0.88;;;;;;;;;;6139401;29;20023;-73
2022/10/05 16:39:16;;;;;;;1.88;1.67;;;;;;;;;;6146735;28;20085;-73
2022/10/05 16:42:20;;;;;;;1.13;1.13;;;;;;;;;;6136506;28;20031;-73
2022/10/05 16:45:22;;;;;;;0.98;0.98;;;;;;;;;;6139566;29;20510;-73
2022/10/05 16:48:24;;;;;;;1.85;1.75;;;;;;;;;;6146444;29;20019;-73
2022/10/05 16:51:27;;;;;;;1.00;1.00;;;;;;;;;;6141699;28;20467;-73
2022/10/05 16:54:27;;;;;;;2.15;0.70;;;;;;;;;;6146312;29;20095;-73
2022/10/05 16:57:34;;;;;;;1.93;1.77;;;;;;;;;;6147354;29;20023;-73
2022/10/05 17:00:52;;;;;;;0.85;0.85;;;;;;;;;;6142315;29;20026;-73
2022/10/05 17:04:07;;;;;;;1.25;1.17;;;;;;;;;;6140749;29;20035;-73
2022/10/05 17:07:19;;;;;;;5.88;2.97;;;;;;;;;;6134202;28;20168;-73
2022/10/05 17:10:36;;;;;;;1.13;0.95;;;;;;;;;;6145150;28;20467;-73
2022/10/05 17:13:55;;;;;;;0.40;0.40;;;;;;;;;;6142513;29;20027;-73
2022/10/05 17:17:01;;;;;;;2.42;1.75;;;;;;;;;;6144711;28;20023;-73
2022/10/05 17:20:20;;;;;;;2.15;1.73;;;;;;;;;;6143463;29;20023;-73
2022/10/05 17:23:30;;;;;;;1.25;1.15;;;;;;;;;;6146864;29;20022;-73
2022/10/05 17:26:49;;;;;;;1.98;1.88;;;;;;;;;;6147969;29;20023;-73
2022/10/05 17:29:53;;;;;;;1.88;1.77;;;;;;;;;;6147180;29;20030;-73
2022/10/05 17:33:03;;;;;;;1.75;1.60;;;;;;;;;;6146527;29;20024;-74
2022/10/05 17:36:07;;;;;;;1.13;1.13;;;;;;;;;;6147695;29;20042;-74
2022/10/05 17:39:13;;;;;;;5.22;4.75;;;;;;;;;;6146741;28;20114;-73
2022/10/05 17:42:25;;;;;;;5.57;2.17;;;;;;;;;;6146439;29;20027;-75
2022/10/05 17:45:28;;;;;;;6.63;1.80;;;;;;;;;;6146614;28;20027;-74
2022/10/05 17:48:43;;;;;;;4.60;3.58;;;;;;;;;;6146656;29;20073;-74
2022/10/05 17:55:25;;;;;;;7.05;2.28;;;;;;;;;;6145788;29;20109;-74
2022/10/05 17:58:26;;;;;;;3.08;2.85;;;;;;;;;;6146661;29;20427;-74
2022/10/05 18:01:29;;;;;;;5.07;2.87;;;;;;;;;;6145698;28;20043;-74
2022/10/05 18:04:37;;;;;;;8.45;3.55;;;;;;;;;;6146689;29;20018;-73
2022/10/05 18:07:38;;;;;;;3.03;2.70;;;;;;;;;;6146224;28;20047;-73
2022/10/05 18:10:58;;;;;;;3.88;3.40;;;;;;;;;;6118725;29;20101;-73
2022/10/05 18:14:18;;;;;;;3.72;3.38;;;;;;;;;;6138202;28;20035;-72
2022/10/05 18:17:38;;;;;;;3.60;3.03;;;;;;;;;;6138478;28;20522;-72
2022/10/05 18:20:43;;;;;;;5.05;3.40;;;;;;;;;;6143985;29;20043;-72
2022/10/05 18:23:58;;;;;;;4.38;3.45;;;;;;;;;;6137182;29;20050;-72
2022/10/05 18:27:10;;;;;;;9.48;6.07;;;;;;;;;;6140818;28;20115;-73
2022/10/05 18:30:18;;;;;;;8.70;7.90;;;;;;;;;;6120188;28;20019;-74
2022/10/05 18:33:37;;;;;;;11.15;10.05;;;;;;;;;;6139308;29;20115;-74
2022/10/05 18:36:50;;;;;;;14.90;6.10;;;;;;;;;;6145865;29;20019;-74
2022/10/05 18:40:07;;;;;;;5.72;5.22;;;;;;;;;;6145807;28;20391;-73
2022/10/05 18:43:07;;;;;;;6.90;4.32;;;;;;;;;;6145529;28;20106;-72
2022/10/05 18:46:11;;;;;;;6.93;6.20;;;;;;;;;;6150088;28;20011;-73
2022/10/05 18:49:25;;;;;;;18.55;7.38;;;;;;;;;;6145276;28;20054;-73
2022/10/05 18:52:28;;;;;;;5.18;4.78;;;;;;;;;;6142358;28;20380;-73
2022/10/05 18:55:36;;;;;;;4.68;2.13;;;;;;;;;;6146094;28;20091;-73
2022/10/05 18:58:55;;;;;;;5.28;3.88;;;;;;;;;;6138494;28;20027;-74
2022/10/05 19:02:03;;;;;;;7.38;5.97;;;;;;;;;;6136465;29;20057;-73